Time;durP1;ratioP1;P1;durP2;ratioP2;P2;SDS_P1;SDS_P2;PMS_P1;PMS_P2;Temp;Humidity;BMP_temperature;BMP_pressure;BME280_temperature;BME280_humidity;BME280_pressure;Samples;Min_cycle;Max_cycle;Signal;HPM_P1;HPM_P2
2021/11/26 00:00:18;;;;;;;;;;;;;;;;;;2076838;28;20156;-48
2021/11/26 00:01:19;;;;;;;;;;;;;;;;;;2081523;28;19925;-46
2021/11/26 00:02:20;;;;;;;;;;;;;;;;;;2079222;28;20294;-46
2021/11/26 00:03:21;;;;;;;;;;;;;;;;;;2073369;28;20338;-46
2021/11/26 00:04:22;;;;;;;;;;;;;;;;;;2081299;28;20006;-46
2021/11/26 00:05:23;;;;;;;;;;;;;;;;;;2078109;28;20015;-46
2021/11/26 00:06:26;;;;;;;;;;;;;;;;;;2075280;28;19929;-45
2021/11/26 00:07:26;;;;;;;;;;;;;;;;;;2073273;28;20356;-45
2021/11/26 00:08:27;;;;;;;;;;;;;;;;;;2071566;28;19926;-45
2021/11/26 00:09:28;;;;;;;;;;;;;;;;;;2075502;28;20008;-46
2021/11/26 00:10:29;;;;;;;;;;;;;;;;;;2073172;28;19932;-46
2021/11/26 00:11:30;;;;;;;;;;;;;;;;;;2072045;28;20341;-45
2021/11/26 00:12:31;;;;;;;;;;;;;;;;;;2078239;28;20342;-46
2021/11/26 00:13:36;;;;;;;;;;;;;;;;;;2081434;28;19932;-48
2021/11/26 00:14:44;;;;;;;;;;;;;;;;;;2075600;28;19933;-46
2021/11/26 00:15:45;;;;;;;;;;;;;;;;;;2065912;28;19980;-45
2021/11/26 00:16:53;;;;;;;;;;;;;;;;;;2065071;28;19965;-46
2021/11/26 00:17:56;;;;;;;;;;;;;;;;;;2072861;28;19933;-46
2021/11/26 00:19:03;;;;;;;;;;;;;;;;;;2081294;28;20449;-46
2021/11/26 00:20:04;;;;;;;;;;;;;;;;;;2080020;28;20101;-48
2021/11/26 00:21:05;;;;;;;;;;;;;;;;;;2072465;28;19926;-50
2021/11/26 00:22:06;;;;;;;;;;;;;;;;;;2073049;28;19926;-47
2021/11/26 00:23:07;;;;;;;;;;;;;;;;;;2072481;28;20011;-46
2021/11/26 00:24:08;;;;;;;;;;;;;;;;;;2074772;28;20012;-46
2021/11/26 00:25:09;;;;;;;;;;;;;;;;;;2073128;28;20047;-49
2021/11/26 00:26:10;;;;;;;;;;;;;;;;;;2073040;28;19930;-43
2021/11/26 00:27:11;;;;;;;;;;;;;;;;;;2074975;28;19976;-43
2021/11/26 00:28:12;;;;;;;;;;;;;;;;;;2074688;28;19972;-43
2021/11/26 00:29:13;;;;;;;;;;;;;;;;;;2072232;28;20021;-43
2021/11/26 00:30:14;;;;;;;;;;;;;;;;;;2082061;28;20409;-44
2021/11/26 00:31:15;;;;;;;;;;;;;;;;;;2082697;28;20011;-43
2021/11/26 00:32:16;;;;;;;;;;;;;;;;;;2075887;28;19929;-44
2021/11/26 00:33:17;;;;;;;;;;;;;;;;;;2080613;28;20504;-44
2021/11/26 00:34:18;;;;;;;;;;;;;;;;;;2082726;28;19925;-43
2021/11/26 00:35:19;;;;;;;;;;;;;;;;;;2077105;28;19940;-43
2021/11/26 00:36:19;;;;;;;;;;;;;;;;;;2074426;28;20397;-43
2021/11/26 00:37:22;;;;;;;;;;;;;;;;;;2074454;28;20096;-43
2021/11/26 00:38:23;;;;;;;;;;;;;;;;;;2075184;28;20015;-43
2021/11/26 00:39:24;;;;;;;;;;;;;;;;;;2074558;28;20013;-42
2021/11/26 00:40:25;;;;;;;;;;;;;;;;;;2074525;28;19948;-43
2021/11/26 00:41:26;;;;;;;;;;;;;;;;;;2075430;28;20004;-42
2021/11/26 00:42:27;;;;;;;;;;;;;;;;;;2082584;28;19979;-42
2021/11/26 00:43:28;;;;;;;;;;;;;;;;;;2082031;28;20063;-43
2021/11/26 00:44:29;;;;;;;;;;;;;;;;;;2076678;28;20008;-43
2021/11/26 00:45:30;;;;;;;;;;;;;;;;;;2082973;28;19929;-46
2021/11/26 00:46:32;;;;;;;;;;;;;;;;;;2081210;28;20409;-47
2021/11/26 00:47:33;;;;;;;;;;;;;;;;;;2077233;28;19932;-46
2021/11/26 00:48:34;;;;;;;;;;;;;;;;;;2082640;28;19929;-50
2021/11/26 00:49:34;;;;;;;;;;;;;;;;;;2079888;28;20023;-46
2021/11/26 00:50:36;;;;;;;;;;;;;;;;;;2075261;28;19984;-46
2021/11/26 00:51:37;;;;;;;;;;;;;;;;;;2074397;28;20016;-46
2021/11/26 00:52:38;;;;;;;;;;;;;;;;;;2072816;28;19925;-45
2021/11/26 00:53:39;;;;;;;;;;;;;;;;;;2075174;28;19933;-47
2021/11/26 00:54:40;;;;;;;;;;;;;;;;;;2074443;28;19929;-45
2021/11/26 00:55:41;;;;;;;;;;;;;;;;;;2072523;28;19975;-46
2021/11/26 00:56:42;;;;;;;;;;;;;;;;;;2079237;28;20395;-50
2021/11/26 00:57:43;;;;;;;;;;;;;;;;;;2082557;28;19956;-46
2021/11/26 00:58:43;;;;;;;;;;;;;;;;;;2077758;28;19930;-46
2021/11/26 00:59:44;;;;;;;;;;;;;;;;;;2080218;28;19925;-46
2021/11/26 01:00:45;;;;;;;;;;;;;;;;;;2082510;28;20020;-46
2021/11/26 01:01:46;;;;;;;;;;;;;;;;;;2077190;28;20304;-46
2021/11/26 01:02:48;;;;;;;;;;;;;;;;;;2079076;28;19925;-48
2021/11/26 01:03:49;;;;;;;;;;;;;;;;;;2066364;28;19941;-46
2021/11/26 01:04:50;;;;;;;;;;;;;;;;;;2070176;28;19969;-46
2021/11/26 01:05:51;;;;;;;;;;;;;;;;;;2082114;28;19933;-48
2021/11/26 01:06:52;;;;;;;;;;;;;;;;;;2082376;28;20441;-47
2021/11/26 01:07:53;;;;;;;;;;;;;;;;;;2075500;28;19925;-47
2021/11/26 01:08:53;;;;;;;;;;;;;;;;;;2082391;28;20012;-45
2021/11/26 01:09:54;;;;;;;;;;;;;;;;;;2082558;28;20374;-46
2021/11/26 01:10:55;;;;;;;;;;;;;;;;;;2076962;28;19947;-46
2021/11/26 01:11:56;;;;;;;;;;;;;;;;;;2074135;28;19932;-49
2021/11/26 01:12:57;;;;;;;;;;;;;;;;;;2074637;28;20016;-43
2021/11/26 01:13:58;;;;;;;;;;;;;;;;;;2075148;28;19962;-43
2021/11/26 01:14:59;;;;;;;;;;;;;;;;;;2074246;28;20375;-43
2021/11/26 01:16:00;;;;;;;;;;;;;;;;;;2074409;28;19925;-43
2021/11/26 01:17:01;;;;;;;;;;;;;;;;;;2075038;28;19971;-43
2021/11/26 01:18:02;;;;;;;;;;;;;;;;;;2074522;28;19925;-46
2021/11/26 01:19:03;;;;;;;;;;;;;;;;;;2073818;28;20438;-45
2021/11/26 01:20:04;;;;;;;;;;;;;;;;;;2075325;28;19925;-45
2021/11/26 01:21:06;;;;;;;;;;;;;;;;;;2074421;28;20026;-47
2021/11/26 01:22:08;;;;;;;;;;;;;;;;;;2073776;28;19926;-47
2021/11/26 01:23:08;;;;;;;;;;;;;;;;;;2076684;28;20020;-47
2021/11/26 01:24:09;;;;;;;;;;;;;;;;;;2082486;28;19943;-45
2021/11/26 01:25:10;;;;;;;;;;;;;;;;;;2080034;28;19998;-46
2021/11/26 01:26:11;;;;;;;;;;;;;;;;;;2077690;28;19971;-46
2021/11/26 01:27:12;;;;;;;;;;;;;;;;;;2082231;28;20016;-45
2021/11/26 01:28:14;;;;;;;;;;;;;;;;;;2078399;28;19929;-46
2021/11/26 01:29:14;;;;;;;;;;;;;;;;;;2076887;28;20011;-47
2021/11/26 01:30:21;;;;;;;;;;;;;;;;;;2082307;28;19926;-46
2021/11/26 01:31:23;;;;;;;;;;;;;;;;;;2077528;28;20012;-46
2021/11/26 01:32:24;;;;;;;;;;;;;;;;;;2080483;28;19973;-46
2021/11/26 01:33:25;;;;;;;;;;;;;;;;;;2082485;28;20016;-45
2021/11/26 01:34:26;;;;;;;;;;;;;;;;;;2076705;28;20017;-46
2021/11/26 01:35:27;;;;;;;;;;;;;;;;;;2080095;28;19932;-47
2021/11/26 01:36:28;;;;;;;;;;;;;;;;;;2082226;28;20437;-46
2021/11/26 01:37:29;;;;;;;;;;;;;;;;;;2076660;28;20220;-46
2021/11/26 01:38:29;;;;;;;;;;;;;;;;;;2074224;28;20063;-46
2021/11/26 01:39:30;;;;;;;;;;;;;;;;;;2074312;28;19995;-48
2021/11/26 01:40:31;;;;;;;;;;;;;;;;;;2075058;28;20027;-45
2021/11/26 01:41:34;;;;;;;;;;;;;;;;;;2073955;28;19925;-46
2021/11/26 01:42:35;;;;;;;;;;;;;;;;;;2074132;28;20036;-47
2021/11/26 01:43:36;;;;;;;;;;;;;;;;;;2073892;28;19930;-48
2021/11/26 01:44:37;;;;;;;;;;;;;;;;;;2082368;28;19925;-47
2021/11/26 01:45:38;;;;;;;;;;;;;;;;;;2082211;28;20286;-46
2021/11/26 01:46:39;;;;;;;;;;;;;;;;;;2074054;28;20016;-48
2021/11/26 01:47:40;;;;;;;;;;;;;;;;;;2082057;28;20322;-47
2021/11/26 01:48:41;;;;;;;;;;;;;;;;;;2082217;28;19925;-46
2021/11/26 01:49:42;;;;;;;;;;;;;;;;;;2074915;28;20017;-47
2021/11/26 01:50:43;;;;;;;;;;;;;;;;;;2082226;28;20294;-47
2021/11/26 01:51:44;;;;;;;;;;;;;;;;;;2081195;28;20008;-47
2021/11/26 01:52:45;;;;;;;;;;;;;;;;;;2076182;28;20011;-47
2021/11/26 01:53:46;;;;;;;;;;;;;;;;;;2082297;28;19936;-49
2021/11/26 01:54:46;;;;;;;;;;;;;;;;;;2080592;28;20013;-46
2021/11/26 01:55:47;;;;;;;;;;;;;;;;;;2075699;28;19936;-47
2021/11/26 01:56:48;;;;;;;;;;;;;;;;;;2082094;28;20391;-47
2021/11/26 01:57:49;;;;;;;;;;;;;;;;;;2079492;28;19925;-47
2021/11/26 01:58:50;;;;;;;;;;;;;;;;;;2078061;28;20409;-47
2021/11/26 01:59:51;;;;;;;;;;;;;;;;;;2082249;28;20012;-47
2021/11/26 02:00:52;;;;;;;;;;;;;;;;;;2079017;28;20029;-46
2021/11/26 02:01:53;;;;;;;;;;;;;;;;;;2074687;28;19925;-46
2021/11/26 02:02:54;;;;;;;;;;;;;;;;;;2072737;28;20004;-46
2021/11/26 02:03:55;;;;;;;;;;;;;;;;;;2072665;28;20363;-47
2021/11/26 02:04:56;;;;;;;;;;;;;;;;;;2079582;28;20003;-46
2021/11/26 02:05:57;;;;;;;;;;;;;;;;;;2082282;28;19925;-48
2021/11/26 02:06:58;;;;;;;;;;;;;;;;;;2077193;28;20015;-46
2021/11/26 02:07:59;;;;;;;;;;;;;;;;;;2079845;28;19926;-49
2021/11/26 02:08:59;;;;;;;;;;;;;;;;;;2082230;28;20012;-47
2021/11/26 02:10:00;;;;;;;;;;;;;;;;;;2076642;28;19977;-46
2021/11/26 02:11:01;;;;;;;;;;;;;;;;;;2080869;28;19925;-43
2021/11/26 02:12:02;;;;;;;;;;;;;;;;;;2082084;28;20369;-43
2021/11/26 02:13:04;;;;;;;;;;;;;;;;;;2077380;28;20434;-43
2021/11/26 02:14:05;;;;;;;;;;;;;;;;;;2074111;28;19969;-43
2021/11/26 02:15:06;;;;;;;;;;;;;;;;;;2073881;28;19926;-43
2021/11/26 02:16:07;;;;;;;;;;;;;;;;;;2071747;28;20157;-43
2021/11/26 02:17:08;;;;;;;;;;;;;;;;;;2081889;28;20020;-43
2021/11/26 02:18:09;;;;;;;;;;;;;;;;;;2081977;28;19925;-43
2021/11/26 02:19:10;;;;;;;;;;;;;;;;;;2075241;28;20450;-43
2021/11/26 02:20:11;;;;;;;;;;;;;;;;;;2082033;28;19932;-43
2021/11/26 02:21:12;;;;;;;;;;;;;;;;;;2082036;28;20021;-44
2021/11/26 02:22:13;;;;;;;;;;;;;;;;;;2073687;28;19925;-43
2021/11/26 02:23:14;;;;;;;;;;;;;;;;;;2081880;28;19925;-43
2021/11/26 02:24:14;;;;;;;;;;;;;;;;;;2082132;28;20444;-44
2021/11/26 02:25:16;;;;;;;;;;;;;;;;;;2075290;28;19925;-43
2021/11/26 02:26:16;;;;;;;;;;;;;;;;;;2073774;28;20008;-43
2021/11/26 02:27:17;;;;;;;;;;;;;;;;;;2073283;28;19926;-43
2021/11/26 02:28:18;;;;;;;;;;;;;;;;;;2075533;28;20000;-43
2021/11/26 02:29:19;;;;;;;;;;;;;;;;;;2081932;28;20375;-43
2021/11/26 02:30:20;;;;;;;;;;;;;;;;;;2080558;28;19982;-43
2021/11/26 02:31:21;;;;;;;;;;;;;;;;;;2076288;28;20004;-43
2021/11/26 02:32:24;;;;;;;;;;;;;;;;;;2081810;28;19933;-43
2021/11/26 02:33:25;;;;;;;;;;;;;;;;;;2079603;28;19931;-45
2021/11/26 02:34:26;;;;;;;;;;;;;;;;;;2077675;28;20378;-46
2021/11/26 02:35:27;;;;;;;;;;;;;;;;;;2081996;28;19929;-48
2021/11/26 02:36:28;;;;;;;;;;;;;;;;;;2078215;28;20004;-45
2021/11/26 02:37:29;;;;;;;;;;;;;;;;;;2074403;28;19932;-46
2021/11/26 02:38:30;;;;;;;;;;;;;;;;;;2073793;28;19936;-46
2021/11/26 02:39:31;;;;;;;;;;;;;;;;;;2072342;28;20370;-45
2021/11/26 02:40:32;;;;;;;;;;;;;;;;;;2079375;28;19936;-45
2021/11/26 02:41:33;;;;;;;;;;;;;;;;;;2081930;28;20008;-46
2021/11/26 02:42:34;;;;;;;;;;;;;;;;;;2077088;28;19929;-46
2021/11/26 02:43:34;;;;;;;;;;;;;;;;;;2073699;28;20020;-48
2021/11/26 02:44:36;;;;;;;;;;;;;;;;;;2073851;28;19929;-47
2021/11/26 02:45:36;;;;;;;;;;;;;;;;;;2072793;28;20013;-46
2021/11/26 02:46:37;;;;;;;;;;;;;;;;;;2080339;28;19936;-46
2021/11/26 02:47:38;;;;;;;;;;;;;;;;;;2081725;28;20322;-46
2021/11/26 02:48:39;;;;;;;;;;;;;;;;;;2075428;28;19932;-46
2021/11/26 02:49:40;;;;;;;;;;;;;;;;;;2081049;28;20024;-46
2021/11/26 02:50:41;;;;;;;;;;;;;;;;;;2081796;28;19925;-46
2021/11/26 02:51:42;;;;;;;;;;;;;;;;;;2073988;28;19929;-47
2021/11/26 02:52:43;;;;;;;;;;;;;;;;;;2079517;28;19925;-47
2021/11/26 02:53:44;;;;;;;;;;;;;;;;;;2081943;28;20016;-46
2021/11/26 02:54:45;;;;;;;;;;;;;;;;;;2074858;28;20028;-46
2021/11/26 02:55:46;;;;;;;;;;;;;;;;;;2081678;28;19929;-46
2021/11/26 02:56:47;;;;;;;;;;;;;;;;;;2081950;28;20008;-46
2021/11/26 02:57:48;;;;;;;;;;;;;;;;;;2075687;28;20432;-47
2021/11/26 02:58:49;;;;;;;;;;;;;;;;;;2073759;28;19925;-47
2021/11/26 02:59:50;;;;;;;;;;;;;;;;;;2073549;28;20013;-46
2021/11/26 03:00:51;;;;;;;;;;;;;;;;;;2074462;28;20297;-46
2021/11/26 03:01:51;;;;;;;;;;;;;;;;;;2073772;28;19926;-43
2021/11/26 03:02:53;;;;;;;;;;;;;;;;;;2072222;28;19925;-44
2021/11/26 03:03:54;;;;;;;;;;;;;;;;;;2074064;28;19925;-43
2021/11/26 03:04:55;;;;;;;;;;;;;;;;;;2081736;28;20020;-43
2021/11/26 03:05:56;;;;;;;;;;;;;;;;;;2080534;28;20023;-43
2021/11/26 03:06:57;;;;;;;;;;;;;;;;;;2074900;28;20037;-43
2021/11/26 03:07:58;;;;;;;;;;;;;;;;;;2081815;28;20366;-43
2021/11/26 03:08:59;;;;;;;;;;;;;;;;;;2079451;28;20015;-43
2021/11/26 03:10:00;;;;;;;;;;;;;;;;;;2076871;28;19929;-43
2021/11/26 03:11:01;;;;;;;;;;;;;;;;;;2081708;28;20028;-43
2021/11/26 03:12:02;;;;;;;;;;;;;;;;;;2077899;28;19932;-43
2021/11/26 03:13:03;;;;;;;;;;;;;;;;;;2078322;28;19925;-43
2021/11/26 03:14:04;;;;;;;;;;;;;;;;;;2081757;28;20016;-43
2021/11/26 03:15:05;;;;;;;;;;;;;;;;;;2077181;28;19956;-43
2021/11/26 03:16:06;;;;;;;;;;;;;;;;;;2079157;28;20027;-43
2021/11/26 03:17:07;;;;;;;;;;;;;;;;;;2081858;28;19928;-43
2021/11/26 03:18:08;;;;;;;;;;;;;;;;;;2077297;28;19931;-43
2021/11/26 03:19:09;;;;;;;;;;;;;;;;;;2077063;28;20384;-43
2021/11/26 03:20:10;;;;;;;;;;;;;;;;;;2081574;28;20011;-43
2021/11/26 03:21:11;;;;;;;;;;;;;;;;;;2077183;28;20300;-43
2021/11/26 03:22:12;;;;;;;;;;;;;;;;;;2074420;28;20000;-43
2021/11/26 03:23:13;;;;;;;;;;;;;;;;;;2073559;28;20001;-43
2021/11/26 03:24:14;;;;;;;;;;;;;;;;;;2072315;28;20008;-43
2021/11/26 03:25:15;;;;;;;;;;;;;;;;;;2074159;28;19926;-43
2021/11/26 03:26:16;;;;;;;;;;;;;;;;;;2073470;28;20373;-43
2021/11/26 03:27:17;;;;;;;;;;;;;;;;;;2071178;28;19925;-43
2021/11/26 03:28:17;;;;;;;;;;;;;;;;;;2081188;28;19983;-43
2021/11/26 03:29:18;;;;;;;;;;;;;;;;;;2081768;28;19925;-43
2021/11/26 03:30:19;;;;;;;;;;;;;;;;;;2073535;28;20306;-43
2021/11/26 03:31:20;;;;;;;;;;;;;;;;;;2081413;28;19928;-43
2021/11/26 03:32:21;;;;;;;;;;;;;;;;;;2081453;28;20418;-42
2021/11/26 03:33:22;;;;;;;;;;;;;;;;;;2075734;28;19951;-43
2021/11/26 03:34:23;;;;;;;;;;;;;;;;;;2065359;28;20016;-43
2021/11/26 03:35:24;;;;;;;;;;;;;;;;;;2064724;28;19926;-43
2021/11/26 03:36:25;;;;;;;;;;;;;;;;;;2072304;28;20347;-43
2021/11/26 03:37:26;;;;;;;;;;;;;;;;;;2080776;28;20024;-43
2021/11/26 03:38:27;;;;;;;;;;;;;;;;;;2073982;28;19926;-43
2021/11/26 03:39:27;;;;;;;;;;;;;;;;;;2074262;28;20012;-43
2021/11/26 03:40:28;;;;;;;;;;;;;;;;;;2081722;28;19975;-43
2021/11/26 03:41:29;;;;;;;;;;;;;;;;;;2080683;28;19947;-43
2021/11/26 03:42:30;;;;;;;;;;;;;;;;;;2074156;28;19929;-43
2021/11/26 03:43:31;;;;;;;;;;;;;;;;;;2081505;28;20529;-43
2021/11/26 03:44:32;;;;;;;;;;;;;;;;;;2079820;28;19955;-43
2021/11/26 03:45:33;;;;;;;;;;;;;;;;;;2076028;28;19987;-43
2021/11/26 03:46:34;;;;;;;;;;;;;;;;;;2081571;28;20366;-43
2021/11/26 03:47:35;;;;;;;;;;;;;;;;;;2078889;28;20015;-43
2021/11/26 03:48:36;;;;;;;;;;;;;;;;;;2077263;28;19929;-43
2021/11/26 03:49:37;;;;;;;;;;;;;;;;;;2081519;28;20016;-43
2021/11/26 03:50:38;;;;;;;;;;;;;;;;;;2077875;28;19925;-46
2021/11/26 03:51:38;;;;;;;;;;;;;;;;;;2074619;28;20015;-48
2021/11/26 03:52:39;;;;;;;;;;;;;;;;;;2073476;28;19929;-45
2021/11/26 03:53:40;;;;;;;;;;;;;;;;;;2071880;28;20345;-47
2021/11/26 03:54:42;;;;;;;;;;;;;;;;;;2079059;28;19926;-45
2021/11/26 03:55:43;;;;;;;;;;;;;;;;;;2081508;28;20023;-46
2021/11/26 03:56:44;;;;;;;;;;;;;;;;;;2077838;28;19964;-47
2021/11/26 03:57:46;;;;;;;;;;;;;;;;;;2074638;28;19965;-47
2021/11/26 03:58:47;;;;;;;;;;;;;;;;;;2073445;28;20000;-47
2021/11/26 03:59:47;;;;;;;;;;;;;;;;;;2073251;28;20016;-47
2021/11/26 04:00:48;;;;;;;;;;;;;;;;;;2073397;28;20285;-47
2021/11/26 04:01:49;;;;;;;;;;;;;;;;;;2073296;28;20428;-48
2021/11/26 04:02:51;;;;;;;;;;;;;;;;;;2070605;28;19949;-47
2021/11/26 04:03:51;;;;;;;;;;;;;;;;;;2080866;28;19925;-46
2021/11/26 04:04:52;;;;;;;;;;;;;;;;;;2081485;28;19929;-47
2021/11/26 04:05:53;;;;;;;;;;;;;;;;;;2076420;28;20008;-47
2021/11/26 04:06:54;;;;;;;;;;;;;;;;;;2073001;28;20089;-46
2021/11/26 04:07:56;;;;;;;;;;;;;;;;;;2073285;28;20016;-46
2021/11/26 04:08:56;;;;;;;;;;;;;;;;;;2071662;28;20434;-47
2021/11/26 04:09:58;;;;;;;;;;;;;;;;;;2081224;28;19929;-46
2021/11/26 04:10:59;;;;;;;;;;;;;;;;;;2081548;28;20000;-46
2021/11/26 04:12:00;;;;;;;;;;;;;;;;;;2072958;28;19925;-48
2021/11/26 04:13:13;;;;;;;;;;;;;;;;;;2081546;28;19925;-47
2021/11/26 04:14:14;;;;;;;;;;;;;;;;;;2079738;28;20016;-47
2021/11/26 04:15:15;;;;;;;;;;;;;;;;;;2076478;28;20075;-46
2021/11/26 04:16:17;;;;;;;;;;;;;;;;;;2081301;28;19971;-47
2021/11/26 04:17:18;;;;;;;;;;;;;;;;;;2078133;28;20019;-46
2021/11/26 04:18:19;;;;;;;;;;;;;;;;;;2077763;28;19925;-49
2021/11/26 04:19:19;;;;;;;;;;;;;;;;;;2081490;28;20062;-46
2021/11/26 04:20:21;;;;;;;;;;;;;;;;;;2076950;28;20305;-47
2021/11/26 04:21:21;;;;;;;;;;;;;;;;;;2078628;28;19925;-48
2021/11/26 04:22:22;;;;;;;;;;;;;;;;;;2081189;28;19964;-49
2021/11/26 04:23:23;;;;;;;;;;;;;;;;;;2076807;28;20362;-47
2021/11/26 04:24:24;;;;;;;;;;;;;;;;;;2078655;28;19925;-46
2021/11/26 04:25:25;;;;;;;;;;;;;;;;;;2081274;28;19975;-46
2021/11/26 04:26:26;;;;;;;;;;;;;;;;;;2076785;28;19933;-47
2021/11/26 04:27:27;;;;;;;;;;;;;;;;;;2074358;28;19948;-48
2021/11/26 04:28:28;;;;;;;;;;;;;;;;;;2073285;28;19925;-47
2021/11/26 04:29:29;;;;;;;;;;;;;;;;;;2072094;28;19925;-46
2021/11/26 04:30:30;;;;;;;;;;;;;;;;;;2078915;28;19932;-46
2021/11/26 04:31:30;;;;;;;;;;;;;;;;;;2081261;28;20417;-48
2021/11/26 04:32:32;;;;;;;;;;;;;;;;;;2073799;28;19933;-47
2021/11/26 04:33:33;;;;;;;;;;;;;;;;;;2080575;28;20366;-48
2021/11/26 04:34:33;;;;;;;;;;;;;;;;;;2081198;28;20476;-46
2021/11/26 04:35:35;;;;;;;;;;;;;;;;;;2076316;28;19933;-46
2021/11/26 04:36:36;;;;;;;;;;;;;;;;;;2072939;28;20016;-46
2021/11/26 04:37:36;;;;;;;;;;;;;;;;;;2073124;28;20028;-47
2021/11/26 04:38:37;;;;;;;;;;;;;;;;;;2072659;28;20356;-46
2021/11/26 04:39:38;;;;;;;;;;;;;;;;;;2081256;28;20024;-47
2021/11/26 04:40:39;;;;;;;;;;;;;;;;;;2081193;28;20574;-47
2021/11/26 04:41:40;;;;;;;;;;;;;;;;;;2073264;28;20020;-46
2021/11/26 04:42:41;;;;;;;;;;;;;;;;;;2081107;28;20302;-46
2021/11/26 04:43:42;;;;;;;;;;;;;;;;;;2081205;28;20019;-47
2021/11/26 04:44:43;;;;;;;;;;;;;;;;;;2074051;28;19933;-46
2021/11/26 04:45:44;;;;;;;;;;;;;;;;;;2081120;28;20338;-49
2021/11/26 04:46:45;;;;;;;;;;;;;;;;;;2080444;28;20016;-46
2021/11/26 04:47:45;;;;;;;;;;;;;;;;;;2074071;28;20019;-43
2021/11/26 04:48:49;;;;;;;;;;;;;;;;;;2081526;28;19925;-44
2021/11/26 04:49:50;;;;;;;;;;;;;;;;;;2079202;28;20477;-44
2021/11/26 04:50:51;;;;;;;;;;;;;;;;;;2076090;28;19933;-44
2021/11/26 04:51:52;;;;;;;;;;;;;;;;;;2081111;28;19932;-43
2021/11/26 04:52:53;;;;;;;;;;;;;;;;;;2078235;28;20285;-43
2021/11/26 04:53:54;;;;;;;;;;;;;;;;;;2076269;28;20339;-43
2021/11/26 04:54:55;;;;;;;;;;;;;;;;;;2081144;28;19975;-43
2021/11/26 04:55:56;;;;;;;;;;;;;;;;;;2076728;28;20339;-43
2021/11/26 04:56:57;;;;;;;;;;;;;;;;;;2075369;28;20018;-43
2021/11/26 04:57:58;;;;;;;;;;;;;;;;;;2073143;28;20379;-44
2021/11/26 04:58:59;;;;;;;;;;;;;;;;;;2071767;28;20349;-43
2021/11/26 05:00:00;;;;;;;;;;;;;;;;;;2075185;28;19925;-44
2021/11/26 05:01:01;;;;;;;;;;;;;;;;;;2072909;28;19964;-43
2021/11/26 05:02:02;;;;;;;;;;;;;;;;;;2071983;28;19925;-43
2021/11/26 05:03:03;;;;;;;;;;;;;;;;;;2073096;28;19926;-43
2021/11/26 05:04:04;;;;;;;;;;;;;;;;;;2064864;28;20447;-43
2021/11/26 05:05:05;;;;;;;;;;;;;;;;;;2067402;28;19926;-43
2021/11/26 05:06:06;;;;;;;;;;;;;;;;;;2079887;28;20004;-43
2021/11/26 05:07:07;;;;;;;;;;;;;;;;;;2081128;28;19926;-43
2021/11/26 05:08:08;;;;;;;;;;;;;;;;;;2076278;28;19928;-43
2021/11/26 05:09:10;;;;;;;;;;;;;;;;;;2073165;28;19925;-43
2021/11/26 05:10:11;;;;;;;;;;;;;;;;;;2072783;28;20351;-43
2021/11/26 05:11:12;;;;;;;;;;;;;;;;;;2072105;28;19932;-43
2021/11/26 05:12:13;;;;;;;;;;;;;;;;;;2080763;28;20247;-43
2021/11/26 05:13:14;;;;;;;;;;;;;;;;;;2082364;28;20015;-43
2021/11/26 05:14:18;;;;;;;;;;;;;;;;;;2074447;28;20033;-43
2021/11/26 05:15:24;;;;;;;;;;;;;;;;;;2082464;28;20311;-43
2021/11/26 05:16:25;;;;;;;;;;;;;;;;;;2081775;28;19964;-43
2021/11/26 05:17:26;;;;;;;;;;;;;;;;;;2077223;28;20016;-43
2021/11/26 05:18:27;;;;;;;;;;;;;;;;;;2082555;28;20335;-43
2021/11/26 05:19:28;;;;;;;;;;;;;;;;;;2081209;28;20328;-43
2021/11/26 05:20:29;;;;;;;;;;;;;;;;;;2074567;28;19925;-43
2021/11/26 05:21:30;;;;;;;;;;;;;;;;;;2074244;28;20000;-43
2021/11/26 05:22:31;;;;;;;;;;;;;;;;;;2073478;28;19929;-45
2021/11/26 05:23:31;;;;;;;;;;;;;;;;;;2076917;28;20003;-43
2021/11/26 05:24:33;;;;;;;;;;;;;;;;;;2082501;28;19929;-43
2021/11/26 05:25:33;;;;;;;;;;;;;;;;;;2078649;28;20014;-43
2021/11/26 05:26:34;;;;;;;;;;;;;;;;;;2079228;28;20350;-44
2021/11/26 05:27:35;;;;;;;;;;;;;;;;;;2082282;28;20225;-43
2021/11/26 05:28:36;;;;;;;;;;;;;;;;;;2078050;28;19929;-43
2021/11/26 05:29:37;;;;;;;;;;;;;;;;;;2079848;28;20007;-43
2021/11/26 05:30:38;;;;;;;;;;;;;;;;;;2082283;28;19998;-43
2021/11/26 05:31:39;;;;;;;;;;;;;;;;;;2077243;28;20418;-43
2021/11/26 05:32:40;;;;;;;;;;;;;;;;;;2078861;28;20298;-43
2021/11/26 05:33:41;;;;;;;;;;;;;;;;;;2082354;28;19929;-43
2021/11/26 05:34:42;;;;;;;;;;;;;;;;;;2077799;28;20025;-43
2021/11/26 05:35:43;;;;;;;;;;;;;;;;;;2075387;28;20423;-43
2021/11/26 05:36:43;;;;;;;;;;;;;;;;;;2074081;28;20024;-43
2021/11/26 05:37:45;;;;;;;;;;;;;;;;;;2074977;28;19926;-43
2021/11/26 05:38:46;;;;;;;;;;;;;;;;;;2074800;28;20018;-46
2021/11/26 05:39:47;;;;;;;;;;;;;;;;;;2074100;28;19975;-46
2021/11/26 05:40:48;;;;;;;;;;;;;;;;;;2072044;28;20004;-49
2021/11/26 05:41:49;;;;;;;;;;;;;;;;;;2081973;28;20374;-46
2021/11/26 05:42:50;;;;;;;;;;;;;;;;;;2082199;28;20039;-46
2021/11/26 05:43:51;;;;;;;;;;;;;;;;;;2076918;28;19979;-47
2021/11/26 05:44:51;;;;;;;;;;;;;;;;;;2074305;28;20012;-43
2021/11/26 05:45:52;;;;;;;;;;;;;;;;;;2074111;28;19926;-43
2021/11/26 05:46:53;;;;;;;;;;;;;;;;;;2073892;28;20326;-43
2021/11/26 05:47:54;;;;;;;;;;;;;;;;;;2073963;28;20001;-43
2021/11/26 05:48:55;;;;;;;;;;;;;;;;;;2074223;28;19926;-43
2021/11/26 05:49:56;;;;;;;;;;;;;;;;;;2074344;28;19925;-43
2021/11/26 05:50:57;;;;;;;;;;;;;;;;;;2082224;28;19975;-43
2021/11/26 05:51:58;;;;;;;;;;;;;;;;;;2082142;28;20374;-43
2021/11/26 05:52:59;;;;;;;;;;;;;;;;;;2075249;28;19946;-43
2021/11/26 05:54:00;;;;;;;;;;;;;;;;;;2082224;28;19965;-44
2021/11/26 05:55:01;;;;;;;;;;;;;;;;;;2081372;28;20393;-44
2021/11/26 05:56:01;;;;;;;;;;;;;;;;;;2075345;28;19961;-44
2021/11/26 05:57:02;;;;;;;;;;;;;;;;;;2074018;28;19925;-44
2021/11/26 05:58:03;;;;;;;;;;;;;;;;;;2073692;28;20012;-44
2021/11/26 05:59:04;;;;;;;;;;;;;;;;;;2076790;28;20385;-43
2021/11/26 06:00:05;;;;;;;;;;;;;;;;;;2082338;28;19929;-44
2021/11/26 06:01:06;;;;;;;;;;;;;;;;;;2079461;28;19925;-43
2021/11/26 06:02:07;;;;;;;;;;;;;;;;;;2077021;28;19954;-43
2021/11/26 06:03:08;;;;;;;;;;;;;;;;;;2075195;28;19926;-43
2021/11/26 06:04:09;;;;;;;;;;;;;;;;;;2066289;28;20016;-43
2021/11/26 06:05:10;;;;;;;;;;;;;;;;;;2074893;28;19925;-43
2021/11/26 06:06:11;;;;;;;;;;;;;;;;;;2073935;28;20012;-43
2021/11/26 06:07:12;;;;;;;;;;;;;;;;;;2072635;28;19926;-44
2021/11/26 06:08:13;;;;;;;;;;;;;;;;;;2079508;28;19925;-44
2021/11/26 06:09:14;;;;;;;;;;;;;;;;;;2082121;28;20211;-44
2021/11/26 06:10:15;;;;;;;;;;;;;;;;;;2077688;28;20390;-43
2021/11/26 06:11:16;;;;;;;;;;;;;;;;;;2075353;28;19976;-44
2021/11/26 06:12:17;;;;;;;;;;;;;;;;;;2073965;28;19925;-44
2021/11/26 06:13:18;;;;;;;;;;;;;;;;;;2072939;28;20008;-43
2021/11/26 06:14:19;;;;;;;;;;;;;;;;;;2080489;28;19968;-44
2021/11/26 06:15:20;;;;;;;;;;;;;;;;;;2082098;28;19975;-43
2021/11/26 06:16:21;;;;;;;;;;;;;;;;;;2077649;28;20348;-47
2021/11/26 06:17:22;;;;;;;;;;;;;;;;;;2074053;28;20021;-47
2021/11/26 06:18:23;;;;;;;;;;;;;;;;;;2074103;28;20163;-47
2021/11/26 06:19:24;;;;;;;;;;;;;;;;;;2072853;28;19925;-46
2021/11/26 06:20:25;;;;;;;;;;;;;;;;;;2082043;28;19925;-46
2021/11/26 06:21:26;;;;;;;;;;;;;;;;;;2081983;28;19925;-46
2021/11/26 06:22:26;;;;;;;;;;;;;;;;;;2076445;28;20290;-47
2021/11/26 06:23:27;;;;;;;;;;;;;;;;;;2073395;28;19944;-47
2021/11/26 06:24:28;;;;;;;;;;;;;;;;;;2073924;28;20008;-47
2021/11/26 06:25:29;;;;;;;;;;;;;;;;;;2073813;28;19925;-47
2021/11/26 06:26:30;;;;;;;;;;;;;;;;;;2082055;28;20044;-47
2021/11/26 06:27:31;;;;;;;;;;;;;;;;;;2081943;28;20301;-48
2021/11/26 06:28:33;;;;;;;;;;;;;;;;;;2074868;28;20400;-46
2021/11/26 06:29:34;;;;;;;;;;;;;;;;;;2081952;28;20040;-43
2021/11/26 06:30:35;;;;;;;;;;;;;;;;;;2081353;28;20024;-43
2021/11/26 06:31:36;;;;;;;;;;;;;;;;;;2075659;28;20418;-43
2021/11/26 06:32:37;;;;;;;;;;;;;;;;;;2081897;28;19929;-43
2021/11/26 06:33:38;;;;;;;;;;;;;;;;;;2077301;28;20015;-43
2021/11/26 06:34:39;;;;;;;;;;;;;;;;;;2075294;28;20363;-44
2021/11/26 06:35:40;;;;;;;;;;;;;;;;;;2081863;28;19932;-43
2021/11/26 06:36:41;;;;;;;;;;;;;;;;;;2079677;28;20031;-43
2021/11/26 06:37:42;;;;;;;;;;;;;;;;;;2077495;28;20383;-43
2021/11/26 06:38:42;;;;;;;;;;;;;;;;;;2082039;28;20378;-43
2021/11/26 06:39:43;;;;;;;;;;;;;;;;;;2078174;28;19925;-44
2021/11/26 06:40:44;;;;;;;;;;;;;;;;;;2078796;28;20008;-43
2021/11/26 06:41:45;;;;;;;;;;;;;;;;;;2081908;28;19925;-44
2021/11/26 06:42:46;;;;;;;;;;;;;;;;;;2077113;28;20024;-43
2021/11/26 06:43:47;;;;;;;;;;;;;;;;;;2079780;28;20370;-44
2021/11/26 06:44:48;;;;;;;;;;;;;;;;;;2081810;28;20008;-43
2021/11/26 06:45:49;;;;;;;;;;;;;;;;;;2077278;28;20439;-44
2021/11/26 06:46:50;;;;;;;;;;;;;;;;;;2075407;28;20012;-43
2021/11/26 06:47:51;;;;;;;;;;;;;;;;;;2073724;28;19955;-44
2021/11/26 06:48:52;;;;;;;;;;;;;;;;;;2072705;28;20494;-43
2021/11/26 06:49:53;;;;;;;;;;;;;;;;;;2080054;28;19970;-44
2021/11/26 06:50:54;;;;;;;;;;;;;;;;;;2081722;28;20374;-44
2021/11/26 06:51:55;;;;;;;;;;;;;;;;;;2076097;28;19937;-43
2021/11/26 06:52:56;;;;;;;;;;;;;;;;;;2080915;28;19931;-43
2021/11/26 06:53:57;;;;;;;;;;;;;;;;;;2082031;28;20060;-44
2021/11/26 06:54:59;;;;;;;;;;;;;;;;;;2075007;28;20391;-44
2021/11/26 06:56:00;;;;;;;;;;;;;;;;;;2079809;28;19964;-43
2021/11/26 06:57:01;;;;;;;;;;;;;;;;;;2081864;28;20378;-43